createdAt,value
2022-11-27T00:02:13.253Z,55.06
2022-11-27T00:04:39.606Z,55.11
2022-11-27T00:07:05.946Z,55.32
2022-11-27T00:09:33.396Z,55.05
2022-11-27T00:11:59.727Z,55.44
2022-11-27T00:14:26.049Z,55.04
2022-11-27T00:16:52.389Z,55.09
2022-11-27T00:19:18.704Z,55.19
2022-11-27T00:21:45.030Z,55.26
2022-11-27T00:24:11.366Z,55.04
2022-11-27T00:26:38.470Z,55.00
2022-11-27T00:29:05.032Z,55.08
2022-11-27T00:31:31.768Z,55.07
2022-11-27T00:33:58.941Z,55.20
2022-11-27T00:36:25.334Z,55.40
2022-11-27T00:38:51.645Z,55.22
2022-11-27T00:41:19.053Z,55.27
2022-11-27T00:43:45.724Z,55.18
2022-11-27T00:46:12.985Z,55.55
2022-11-27T00:48:39.411Z,55.17
2022-11-27T00:51:06.761Z,55.17
2022-11-27T00:53:33.163Z,55.28
2022-11-27T00:55:59.484Z,55.31
2022-11-27T00:58:25.807Z,55.26
2022-11-27T01:00:55.789Z,55.49
2022-11-27T01:03:22.209Z,55.23
2022-11-27T01:05:48.578Z,55.29
2022-11-27T01:08:14.897Z,55.55
2022-11-27T01:10:50.755Z,55.49
2022-11-27T01:13:22.809Z,55.30
2022-11-27T01:15:57.909Z,55.23
2022-11-27T01:18:24.244Z,55.48
2022-11-27T01:20:53.717Z,55.29
2022-11-27T01:23:20.076Z,55.48
2022-11-27T01:25:46.415Z,55.34
2022-11-27T01:28:12.751Z,55.34
2022-11-27T01:30:39.096Z,55.27
2022-11-27T01:33:05.433Z,55.27
2022-11-27T01:35:33.739Z,55.40
2022-11-27T01:38:00.185Z,55.36
2022-11-27T01:40:26.503Z,55.28
2022-11-27T01:42:52.821Z,55.31
2022-11-27T01:45:19.556Z,55.46
2022-11-27T01:47:47.112Z,55.51
2022-11-27T01:50:15.133Z,55.36
2022-11-27T01:52:42.509Z,55.38
2022-11-27T01:55:10.357Z,55.38
2022-11-27T01:57:39.247Z,55.33
2022-11-27T02:00:06.493Z,55.46
2022-11-27T02:02:38.823Z,55.41
2022-11-27T02:05:05.281Z,55.12
2022-11-27T02:07:31.663Z,55.17
2022-11-27T02:09:58.007Z,55.19
2022-11-27T02:12:28.110Z,55.39
2022-11-27T02:15:00.461Z,55.38
2022-11-27T02:17:31.162Z,55.05
2022-11-27T02:20:16.290Z,55.04
2022-11-27T02:22:53.816Z,55.23
2022-11-27T02:25:25.374Z,55.12
2022-11-27T02:27:57.597Z,55.11
2022-11-27T02:30:24.097Z,55.07
2022-11-27T02:32:57.376Z,55.08
2022-11-27T02:35:28.360Z,54.96
2022-11-27T02:37:58.551Z,54.90
2022-11-27T02:40:31.978Z,55.12
2022-11-27T02:43:02.625Z,55.01
2022-11-27T02:45:32.767Z,54.96
2022-11-27T02:47:59.095Z,54.93
2022-11-27T02:50:25.724Z,54.92
2022-11-27T02:52:53.276Z,54.76
2022-11-27T02:55:20.705Z,54.91
2022-11-27T02:57:47.020Z,55.00
2022-11-27T03:00:13.583Z,54.76
2022-11-27T03:02:41.901Z,54.82
2022-11-27T03:05:08.780Z,54.74
2022-11-27T03:07:40.166Z,54.74
2022-11-27T03:10:08.886Z,54.82
2022-11-27T03:12:35.207Z,54.74
2022-11-27T03:15:01.542Z,54.97
2022-11-27T03:17:27.787Z,54.73
2022-11-27T03:19:55.964Z,54.54
2022-11-27T03:22:22.297Z,54.48
2022-11-27T03:24:49.875Z,54.68
2022-11-27T03:27:18.142Z,54.68
2022-11-27T03:29:48.549Z,54.77
2022-11-27T03:32:14.874Z,54.46
2022-11-27T03:34:41.349Z,54.55
2022-11-27T03:37:07.819Z,54.55
2022-11-27T03:39:34.190Z,54.51
2022-11-27T03:42:18.977Z,54.44
2022-11-27T03:44:50.231Z,54.35
2022-11-27T03:47:36.927Z,54.41
2022-11-27T03:50:18.356Z,54.30
2022-11-27T03:52:48.055Z,54.41
2022-11-27T03:55:18.964Z,54.50
2022-11-27T03:57:48.034Z,54.51
2022-11-27T04:00:14.416Z,54.39
2022-11-27T04:03:00.914Z,54.37
2022-11-27T04:05:27.233Z,54.64
2022-11-27T04:07:53.612Z,54.56
2022-11-27T04:10:20.039Z,54.86
2022-11-27T04:12:46.401Z,54.49
2022-11-27T04:15:12.898Z,55.07
2022-11-27T04:17:39.213Z,54.60
2022-11-27T04:20:05.838Z,54.91
2022-11-27T04:22:32.159Z,54.96
2022-11-27T04:24:58.477Z,54.66
2022-11-27T04:27:24.824Z,54.91
2022-11-27T04:29:51.127Z,54.58
2022-11-27T04:32:17.551Z,54.43
2022-11-27T04:34:43.863Z,54.81
2022-11-27T04:37:10.181Z,54.92
2022-11-27T04:39:36.567Z,54.69
2022-11-27T04:42:02.889Z,54.65
2022-11-27T04:44:29.206Z,54.62
2022-11-27T04:46:55.596Z,54.59
2022-11-27T04:49:21.961Z,55.01
2022-11-27T04:51:48.277Z,55.04
2022-11-27T04:54:14.581Z,54.94
2022-11-27T04:56:40.934Z,55.04
2022-11-27T04:59:07.257Z,55.32
2022-11-27T05:01:33.597Z,55.29
2022-11-27T05:03:59.938Z,55.35
2022-11-27T05:06:26.280Z,55.28
2022-11-27T05:08:59.542Z,55.62
2022-11-27T05:11:25.859Z,55.20
2022-11-27T05:14:12.176Z,54.89
2022-11-27T05:16:38.514Z,55.49
2022-11-27T05:19:04.880Z,55.27
2022-11-27T05:21:31.200Z,55.50
2022-11-27T05:23:57.514Z,55.33
2022-11-27T05:26:23.844Z,55.32
2022-11-27T05:28:50.254Z,55.43
2022-11-27T05:31:16.592Z,55.22
2022-11-27T05:33:42.985Z,55.49
2022-11-27T05:36:09.303Z,55.43
2022-11-27T05:38:35.619Z,55.48
2022-11-27T05:41:01.934Z,55.35
2022-11-27T05:43:28.245Z,55.36
2022-11-27T05:45:54.564Z,55.50
2022-11-27T05:48:20.913Z,55.25
2022-11-27T05:50:47.239Z,55.22
2022-11-27T05:53:14.151Z,55.46
2022-11-27T05:55:40.473Z,55.39
2022-11-27T05:58:07.287Z,55.33
2022-11-27T06:00:33.630Z,55.37
2022-11-27T06:03:00.066Z,55.59
2022-11-27T06:05:26.479Z,55.35
2022-11-27T06:07:52.906Z,55.79
2022-11-27T06:10:19.317Z,55.49
2022-11-27T06:12:45.844Z,55.20
2022-11-27T06:15:12.174Z,55.50
2022-11-27T06:17:38.542Z,55.39
2022-11-27T06:20:05.107Z,55.28
2022-11-27T06:22:31.435Z,55.38
2022-11-27T06:24:57.753Z,55.44
2022-11-27T06:27:24.113Z,55.31
2022-11-27T06:29:50.458Z,55.15
2022-11-27T06:32:16.895Z,54.92
2022-11-27T06:34:43.244Z,55.02
2022-11-27T06:37:13.207Z,55.19
2022-11-27T06:39:39.936Z,55.26
2022-11-27T06:42:06.261Z,55.14
2022-11-27T06:44:32.601Z,55.06
2022-11-27T06:46:58.946Z,55.30
2022-11-27T06:49:25.270Z,55.09
2022-11-27T06:51:51.590Z,55.06
2022-11-27T06:54:17.892Z,54.89
2022-11-27T06:56:44.207Z,54.85
2022-11-27T06:59:11.172Z,54.94
2022-11-27T07:01:37.573Z,54.96
2022-11-27T07:04:03.933Z,54.88
2022-11-27T07:06:30.325Z,55.11
2022-11-27T07:08:56.643Z,55.24
2022-11-27T07:11:23.912Z,55.01
2022-11-27T07:13:50.268Z,54.84
2022-11-27T07:16:16.642Z,54.96
2022-11-27T07:18:43.734Z,54.92
2022-11-27T07:21:10.061Z,54.89
2022-11-27T07:23:36.460Z,54.77
2022-11-27T07:26:12.326Z,54.96
2022-11-27T07:28:38.641Z,54.84
2022-11-27T07:31:05.150Z,54.77
2022-11-27T07:33:31.465Z,54.74
2022-11-27T07:36:07.053Z,55.06
2022-11-27T07:38:33.370Z,54.92
2022-11-27T07:41:00.704Z,55.19
2022-11-27T07:43:27.160Z,54.79
2022-11-27T07:45:53.536Z,54.66
2022-11-27T07:48:19.897Z,54.90
2022-11-27T07:50:46.259Z,55.05
2022-11-27T07:53:12.599Z,54.93
2022-11-27T07:55:39.690Z,54.94
2022-11-27T07:58:06.315Z,54.77
2022-11-27T08:00:32.664Z,54.71
2022-11-27T08:02:59.362Z,54.79
2022-11-27T08:05:25.714Z,54.91
2022-11-27T08:07:52.152Z,54.81
2022-11-27T08:10:18.516Z,54.93
2022-11-27T08:12:44.847Z,55.01
2022-11-27T08:15:11.191Z,54.89
2022-11-27T08:17:37.571Z,54.80
2022-11-27T08:20:04.112Z,54.68
2022-11-27T08:22:30.689Z,54.64
2022-11-27T08:24:57.056Z,54.61
2022-11-27T08:27:23.404Z,54.75
2022-11-27T08:29:49.723Z,54.62
2022-11-27T08:32:16.040Z,54.79
2022-11-27T08:34:42.582Z,54.61
2022-11-27T08:37:09.145Z,54.37
2022-11-27T08:39:35.457Z,54.17
2022-11-27T08:42:01.806Z,53.87
2022-11-27T08:44:28.139Z,53.90
2022-11-27T08:46:54.481Z,54.04
2022-11-27T08:49:20.838Z,53.28
2022-11-27T08:51:47.177Z,53.34
2022-11-27T08:54:13.479Z,53.27
2022-11-27T08:56:39.784Z,53.41
2022-11-27T08:59:06.102Z,53.81
2022-11-27T09:01:32.538Z,53.61
2022-11-27T09:03:59.400Z,53.79
2022-11-27T09:06:29.551Z,53.75
2022-11-27T09:08:56.268Z,53.70
2022-11-27T09:11:22.684Z,53.65
2022-11-27T09:13:49.018Z,53.74
2022-11-27T09:16:16.261Z,53.59
2022-11-27T09:18:46.201Z,53.85
2022-11-27T09:21:12.833Z,53.83
2022-11-27T09:23:39.582Z,53.73
2022-11-27T09:26:06.901Z,53.88
2022-11-27T09:28:33.249Z,53.47
2022-11-27T09:31:00.005Z,53.37
2022-11-27T09:33:26.811Z,53.53
2022-11-27T09:35:53.174Z,53.55
2022-11-27T09:38:19.562Z,53.58
2022-11-27T09:40:52.542Z,53.76
2022-11-27T09:43:21.052Z,53.71
2022-11-27T09:45:51.315Z,53.63
2022-11-27T09:48:22.240Z,53.71
2022-11-27T09:50:50.403Z,53.63
2022-11-27T09:53:21.705Z,53.63
2022-11-27T09:55:48.997Z,53.54
2022-11-27T09:58:16.441Z,53.63
2022-11-27T10:00:45.893Z,53.53
2022-11-27T10:03:15.686Z,53.46
2022-11-27T10:05:45.813Z,53.86
2022-11-27T10:08:35.449Z,53.61
2022-11-27T10:11:07.902Z,53.63
2022-11-27T10:13:39.952Z,53.80
2022-11-27T10:16:24.612Z,53.78
2022-11-27T10:18:54.867Z,53.95
2022-11-27T10:21:25.468Z,53.63
2022-11-27T10:23:56.548Z,48.32
2022-11-27T10:26:25.712Z,50.10
2022-11-27T10:29:05.878Z,52.26
2022-11-27T10:31:51.421Z,51.05
2022-11-27T10:34:36.421Z,51.98
2022-11-27T10:37:05.539Z,52.32
2022-11-27T10:39:41.067Z,52.49
2022-11-27T10:42:10.275Z,52.74
2022-11-27T10:44:46.682Z,52.75
2022-11-27T10:47:13.032Z,53.10
2022-11-27T10:49:40.120Z,53.46
2022-11-27T10:52:06.457Z,53.39
2022-11-27T10:54:34.195Z,53.49
2022-11-27T10:57:19.224Z,53.95
2022-11-27T10:59:48.051Z,53.78
2022-11-27T11:02:27.659Z,53.79
2022-11-27T11:05:16.235Z,53.87
2022-11-27T11:07:40.798Z,53.98
2022-11-27T11:10:08.354Z,54.24
2022-11-27T11:12:34.821Z,54.12
2022-11-27T11:15:01.624Z,54.01
2022-11-27T11:17:30.247Z,54.19
2022-11-27T11:19:56.648Z,54.03
2022-11-27T11:22:22.959Z,53.83
2022-11-27T11:24:49.880Z,54.04
2022-11-27T11:27:17.291Z,54.19
2022-11-27T11:29:46.462Z,54.16
2022-11-27T11:32:16.766Z,54.16
2022-11-27T11:34:43.966Z,54.41
2022-11-27T11:37:18.721Z,55.69
2022-11-27T11:39:45.630Z,55.42
2022-11-27T11:42:18.679Z,55.92
2022-11-27T11:44:46.521Z,55.92
2022-11-27T11:47:19.008Z,56.00
2022-11-27T11:49:45.428Z,55.87
2022-11-27T11:52:22.370Z,49.87
2022-11-27T11:54:50.588Z,51.54
2022-11-27T11:57:19.929Z,54.91
2022-11-27T11:59:49.133Z,53.94
2022-11-27T12:02:39.018Z,54.29
2022-11-27T12:05:15.537Z,54.62
2022-11-27T12:08:00.544Z,54.65
2022-11-27T12:10:48.850Z,54.77
2022-11-27T12:13:34.087Z,55.10
2022-11-27T12:16:13.489Z,55.33
2022-11-27T12:18:45.721Z,54.66
2022-11-27T12:21:15.689Z,55.01
2022-11-27T12:23:59.366Z,55.23
2022-11-27T12:26:44.568Z,55.02
2022-11-27T12:29:30.593Z,55.28
2022-11-27T12:32:15.777Z,55.14
2022-11-27T12:34:46.366Z,55.32
2022-11-27T12:37:14.093Z,55.16
2022-11-27T12:39:54.386Z,55.24
2022-11-27T12:42:24.071Z,55.19
2022-11-27T12:44:55.667Z,54.99
2022-11-27T12:47:40.597Z,55.40
2022-11-27T12:50:15.803Z,54.88
2022-11-27T12:52:43.120Z,52.79
2022-11-27T12:55:15.879Z,53.78
2022-11-27T12:57:59.484Z,53.65
2022-11-27T13:00:26.524Z,53.30
2022-11-27T13:02:52.825Z,52.48
2022-11-27T13:05:20.418Z,52.83
2022-11-27T13:08:00.874Z,52.49
2022-11-27T13:10:28.488Z,52.55
2022-11-27T13:13:13.617Z,50.71
2022-11-27T13:15:41.096Z,50.81
2022-11-27T13:18:11.229Z,50.41
2022-11-27T13:20:38.273Z,51.21
2022-11-27T13:23:04.613Z,51.14
2022-11-27T13:25:30.976Z,50.96
2022-11-27T13:27:57.397Z,50.98
2022-11-27T13:30:24.986Z,51.03
2022-11-27T13:32:52.493Z,51.20
2022-11-27T13:35:23.238Z,51.60
2022-11-27T13:37:49.694Z,51.64
2022-11-27T13:40:20.917Z,51.95
2022-11-27T13:43:31.567Z,51.78
2022-11-27T13:46:04.803Z,51.99
2022-11-27T13:48:41.046Z,51.94
2022-11-27T13:51:08.104Z,52.02
2022-11-27T13:53:35.527Z,52.03
2022-11-27T13:56:01.849Z,52.46
2022-11-27T13:58:37.745Z,52.08
2022-11-27T14:01:13.749Z,52.35
2022-11-27T14:03:40.133Z,52.15
2022-11-27T14:06:16.009Z,52.30
2022-11-27T14:08:48.256Z,52.19
2022-11-27T14:11:14.565Z,52.50
2022-11-27T14:13:48.113Z,52.15
2022-11-27T14:16:31.628Z,52.71
2022-11-27T14:18:58.769Z,52.66
2022-11-27T14:21:26.051Z,52.73
2022-11-27T14:23:52.493Z,52.24
2022-11-27T14:26:18.740Z,52.58
2022-11-27T14:28:54.754Z,52.33
2022-11-27T14:31:28.312Z,52.29
2022-11-27T14:36:40.991Z,52.42
2022-11-27T14:39:07.412Z,52.34
2022-11-27T14:41:33.754Z,52.60
2022-11-27T14:44:03.956Z,52.60
2022-11-27T14:46:30.608Z,53.03
2022-11-27T14:48:57.096Z,52.74
2022-11-27T14:51:26.817Z,52.73
2022-11-27T14:53:59.891Z,52.77
2022-11-27T14:56:30.836Z,52.94
2022-11-27T14:58:57.169Z,52.99
2022-11-27T15:01:26.347Z,52.63
2022-11-27T15:03:56.753Z,52.97
2022-11-27T15:06:23.133Z,52.91
2022-11-27T15:09:09.003Z,52.82
2022-11-27T15:11:55.034Z,52.79
2022-11-27T15:14:21.979Z,52.93
2022-11-27T15:16:51.234Z,52.83
2022-11-27T15:19:21.077Z,52.87
2022-11-27T15:21:48.312Z,53.02
2022-11-27T15:24:30.956Z,53.06
2022-11-27T15:27:06.756Z,52.97
2022-11-27T15:29:34.831Z,53.06
2022-11-27T15:32:01.255Z,52.92
2022-11-27T15:34:29.689Z,52.98
2022-11-27T15:36:55.925Z,53.06
2022-11-27T15:39:23.329Z,53.08
2022-11-27T15:42:09.122Z,53.01
2022-11-27T15:44:36.295Z,52.93
2022-11-27T15:47:02.939Z,53.02
2022-11-27T15:49:29.251Z,53.27
2022-11-27T15:51:56.003Z,53.10
2022-11-27T15:54:22.363Z,53.05
2022-11-27T15:56:48.817Z,53.39
2022-11-27T15:59:15.185Z,53.56
2022-11-27T16:01:41.579Z,53.28
2022-11-27T16:04:07.904Z,53.36
2022-11-27T16:06:37.487Z,53.26
2022-11-27T16:09:03.877Z,53.21
2022-11-27T16:11:30.440Z,53.32
2022-11-27T16:13:56.760Z,53.08
2022-11-27T16:16:23.367Z,53.23
2022-11-27T16:18:49.717Z,53.19
2022-11-27T16:21:16.156Z,53.09
2022-11-27T16:23:42.505Z,53.28
2022-11-27T16:26:10.527Z,53.22
2022-11-27T16:28:36.854Z,53.40
2022-11-27T16:31:03.424Z,53.60
2022-11-27T16:33:29.925Z,53.41
2022-11-27T16:35:56.433Z,53.25
2022-11-27T16:38:22.992Z,53.25
2022-11-27T16:40:49.778Z,53.24
2022-11-27T16:43:17.359Z,53.15
2022-11-27T16:45:43.720Z,53.25
2022-11-27T16:48:10.408Z,53.21
2022-11-27T16:50:36.894Z,53.17
2022-11-27T16:53:03.246Z,53.32
2022-11-27T16:55:29.616Z,53.40
2022-11-27T16:57:58.002Z,53.36
2022-11-27T17:00:24.517Z,53.36
2022-11-27T17:02:52.209Z,53.44
2022-11-27T17:05:18.535Z,53.48
2022-11-27T17:07:44.955Z,53.35
2022-11-27T17:10:11.375Z,53.52
2022-11-27T17:12:37.756Z,53.38
2022-11-27T17:15:04.347Z,53.31
2022-11-27T17:17:35.446Z,53.22
2022-11-27T17:20:06.132Z,53.42
2022-11-27T17:22:32.548Z,53.21
2022-11-27T17:24:58.933Z,53.41
2022-11-27T17:27:25.271Z,53.48
2022-11-27T17:29:51.645Z,53.33
2022-11-27T17:32:18.218Z,53.68
2022-11-27T17:34:45.408Z,53.34
2022-11-27T17:37:13.304Z,53.46
2022-11-27T17:39:40.929Z,53.46
2022-11-27T17:42:12.824Z,53.51
2022-11-27T17:44:40.422Z,53.38
2022-11-27T17:47:06.744Z,53.36
2022-11-27T17:49:33.380Z,53.25
2022-11-27T17:52:06.000Z,53.57
2022-11-27T17:54:32.835Z,53.72
2022-11-27T17:56:59.538Z,53.45
2022-11-27T17:59:26.120Z,53.33
2022-11-27T18:01:53.166Z,53.48
2022-11-27T18:04:20.122Z,53.60
2022-11-27T18:06:46.634Z,53.61
2022-11-27T18:09:13.030Z,53.86
2022-11-27T18:11:40.247Z,53.76
2022-11-27T18:14:07.091Z,53.86
2022-11-27T18:16:34.374Z,53.79
2022-11-27T18:19:02.726Z,53.75
2022-11-27T18:21:29.237Z,47.68
2022-11-27T18:29:29.205Z,50.21
2022-11-27T18:31:55.592Z,49.79
2022-11-27T18:34:21.938Z,49.73
2022-11-27T18:36:48.255Z,49.98
2022-11-27T18:39:14.719Z,49.77
2022-11-27T18:41:41.032Z,50.11
2022-11-27T18:44:08.137Z,49.94
2022-11-27T18:46:34.551Z,50.23
2022-11-27T18:49:00.983Z,50.42
2022-11-27T18:51:27.998Z,50.32
2022-11-27T18:53:55.817Z,50.93
2022-11-27T18:56:22.811Z,50.64
2022-11-27T18:58:49.154Z,50.75
2022-11-27T19:01:17.067Z,51.29
2022-11-27T19:03:43.475Z,51.24
2022-11-27T19:06:10.183Z,51.58
2022-11-27T19:08:36.809Z,51.55
2022-11-27T19:11:04.234Z,51.93
2022-11-27T19:13:30.652Z,51.99
2022-11-27T19:15:57.037Z,51.91
2022-11-27T19:18:23.973Z,51.71
2022-11-27T19:20:50.452Z,51.94
2022-11-27T19:23:20.909Z,51.91
2022-11-27T19:25:48.845Z,52.28
2022-11-27T19:28:15.282Z,52.25
2022-11-27T19:30:41.878Z,52.44
2022-11-27T19:33:08.206Z,52.13
2022-11-27T19:35:34.621Z,52.24
2022-11-27T19:38:01.035Z,52.38
2022-11-27T19:40:28.168Z,52.26
2022-11-27T19:42:59.435Z,52.44
2022-11-27T19:45:27.269Z,52.52
2022-11-27T19:47:53.832Z,52.23
2022-11-27T19:50:20.165Z,52.28
2022-11-27T19:52:46.635Z,52.28
2022-11-27T19:55:12.969Z,52.59
2022-11-27T19:57:39.349Z,52.35
2022-11-27T20:00:06.785Z,52.38
2022-11-27T20:02:40.262Z,52.54
2022-11-27T20:05:07.340Z,52.75
2022-11-27T20:07:33.746Z,52.84
2022-11-27T20:10:00.729Z,52.56
2022-11-27T20:12:27.052Z,52.65
2022-11-27T20:14:53.385Z,52.27
2022-11-27T20:17:19.869Z,52.48
2022-11-27T20:19:46.205Z,52.46
2022-11-27T20:22:12.581Z,52.67
2022-11-27T20:24:53.017Z,52.59
2022-11-27T20:27:25.337Z,52.20
2022-11-27T20:29:54.660Z,52.44
2022-11-27T20:32:21.205Z,52.75
2022-11-27T20:34:48.024Z,52.86
2022-11-27T20:37:14.344Z,52.83
2022-11-27T20:39:40.904Z,52.53
2022-11-27T20:42:07.406Z,52.81
2022-11-27T20:44:33.752Z,52.48
2022-11-27T20:47:00.103Z,52.91
2022-11-27T20:49:26.604Z,52.74
2022-11-27T20:51:53.436Z,52.93
2022-11-27T20:54:22.871Z,52.67
2022-11-27T20:56:50.107Z,52.84
2022-11-27T20:59:16.532Z,52.86
2022-11-27T21:01:43.072Z,52.73
2022-11-27T21:04:16.845Z,52.86
2022-11-27T21:06:44.178Z,52.78
2022-11-27T21:09:10.972Z,52.92
2022-11-27T21:11:37.494Z,52.75
2022-11-27T21:14:05.435Z,53.07
2022-11-27T21:16:32.517Z,52.94
2022-11-27T21:19:01.549Z,52.93
2022-11-27T21:21:27.889Z,52.91
2022-11-27T21:23:54.235Z,53.05
2022-11-27T21:26:20.634Z,52.65
2022-11-27T21:28:47.082Z,53.03
2022-11-27T21:31:17.735Z,52.94
2022-11-27T21:33:50.976Z,52.59
2022-11-27T21:36:19.422Z,52.77
2022-11-27T21:38:46.180Z,52.76
2022-11-27T21:41:13.747Z,52.60
2022-11-27T21:43:40.505Z,52.59
2022-11-27T21:46:07.894Z,52.61
2022-11-27T21:48:34.346Z,53.07
2022-11-27T21:51:01.696Z,52.92
2022-11-27T21:53:28.610Z,52.83
2022-11-27T21:55:54.957Z,53.05
2022-11-27T21:58:21.489Z,52.73
2022-11-27T22:00:48.822Z,52.82
2022-11-27T22:03:15.211Z,53.14
2022-11-27T22:05:41.555Z,52.89
2022-11-27T22:08:07.873Z,52.91
2022-11-27T22:10:34.192Z,53.06
2022-11-27T22:13:00.559Z,52.91
2022-11-27T22:15:26.876Z,52.88
2022-11-27T22:17:53.285Z,53.15
2022-11-27T22:20:19.629Z,52.82
2022-11-27T22:22:46.115Z,52.88
2022-11-27T22:25:12.463Z,53.01
2022-11-27T22:27:38.882Z,53.24
2022-11-27T22:30:05.486Z,53.13
2022-11-27T22:32:32.701Z,52.88
2022-11-27T22:34:59.022Z,52.96
2022-11-27T22:37:25.487Z,53.15
2022-11-27T22:39:51.897Z,52.86
2022-11-27T22:42:18.257Z,52.95
2022-11-27T22:44:44.705Z,52.89
2022-11-27T22:47:11.129Z,52.68
2022-11-27T22:49:37.457Z,52.89
2022-11-27T22:52:03.774Z,52.69
2022-11-27T22:54:30.155Z,52.72
2022-11-27T22:56:57.201Z,52.83
2022-11-27T22:59:32.063Z,52.63
2022-11-27T23:01:59.468Z,52.71
2022-11-27T23:04:25.993Z,52.58
2022-11-27T23:06:52.336Z,52.48
2022-11-27T23:09:18.958Z,52.77
2022-11-27T23:11:45.349Z,52.69
2022-11-27T23:14:11.679Z,52.42
2022-11-27T23:16:38.046Z,52.52
2022-11-27T23:19:04.441Z,52.82
2022-11-27T23:21:32.714Z,52.41
2022-11-27T23:23:59.047Z,52.46
2022-11-27T23:26:25.362Z,52.41
2022-11-27T23:28:52.071Z,52.17
2022-11-27T23:31:29.991Z,52.43
2022-11-27T23:33:56.997Z,52.19
2022-11-27T23:36:23.376Z,52.26
2022-11-27T23:38:49.747Z,52.56
2022-11-27T23:41:17.130Z,52.48
2022-11-27T23:43:43.456Z,52.32
2022-11-27T23:46:10.524Z,52.26
2022-11-27T23:48:36.954Z,52.40
2022-11-27T23:51:09.754Z,52.18
2022-11-27T23:53:36.072Z,52.33
2022-11-27T23:56:02.960Z,51.99
2022-11-27T23:58:29.299Z,52.20
